createdAt,value
2023-04-02T00:00:00.687Z,39.46
2023-04-02T00:02:27.246Z,39.48
2023-04-02T00:04:53.785Z,39.19
2023-04-02T00:07:20.167Z,38.74
2023-04-02T00:09:46.553Z,39.03
2023-04-02T00:12:12.926Z,38.98
2023-04-02T00:14:39.611Z,39.03
2023-04-02T00:17:05.949Z,38.95
2023-04-02T00:19:32.347Z,38.83
2023-04-02T00:21:58.779Z,39.09
2023-04-02T00:24:25.117Z,39.07
2023-04-02T00:26:51.454Z,38.62
2023-04-02T00:29:17.778Z,38.69
2023-04-02T00:31:44.229Z,38.51
2023-04-02T00:34:10.573Z,38.68
2023-04-02T00:36:36.944Z,38.41
2023-04-02T00:39:03.538Z,38.36
2023-04-02T00:41:29.892Z,38.89
2023-04-02T00:43:56.285Z,38.40
2023-04-02T00:46:22.660Z,38.43
2023-04-02T00:48:49.024Z,38.62
2023-04-02T00:51:15.420Z,38.43
2023-04-02T00:53:41.801Z,38.80
2023-04-02T00:56:08.311Z,38.69
2023-04-02T00:58:34.696Z,38.41
2023-04-02T01:01:01.104Z,38.35
2023-04-02T01:03:27.616Z,38.59
2023-04-02T01:05:54.128Z,38.67
2023-04-02T01:08:20.466Z,38.54
2023-04-02T01:10:47.002Z,38.68
2023-04-02T01:13:13.458Z,38.25
2023-04-02T01:15:40.078Z,38.40
2023-04-02T01:18:06.517Z,38.55
2023-04-02T01:20:32.984Z,38.28
2023-04-02T01:22:59.424Z,38.58
2023-04-02T01:25:25.784Z,38.12
2023-04-02T01:27:52.164Z,38.60
2023-04-02T01:30:18.560Z,38.41
2023-04-02T01:32:45.066Z,38.57
2023-04-02T01:35:11.587Z,38.62
2023-04-02T01:37:37.975Z,38.74
2023-04-02T01:40:04.282Z,38.55
2023-04-02T01:42:30.667Z,38.67
2023-04-02T01:44:56.997Z,38.53
2023-04-02T01:47:23.323Z,38.36
2023-04-02T01:49:49.653Z,38.64
2023-04-02T01:52:16.038Z,38.65
2023-04-02T01:54:42.379Z,38.67
2023-04-02T01:57:08.763Z,38.74
2023-04-02T01:59:35.151Z,38.48
2023-04-02T02:02:01.605Z,38.32
2023-04-02T02:04:27.982Z,38.58
2023-04-02T02:06:54.356Z,38.57
2023-04-02T02:09:20.693Z,38.31
2023-04-02T02:11:47.124Z,38.31
2023-04-02T02:14:13.459Z,38.38
2023-04-02T02:16:39.881Z,38.33
2023-04-02T02:19:06.256Z,38.07
2023-04-02T02:21:32.585Z,38.39
2023-04-02T02:23:58.994Z,38.37
2023-04-02T02:26:25.375Z,38.21
2023-04-02T02:28:51.795Z,38.52
2023-04-02T02:31:18.186Z,38.25
2023-04-02T02:33:44.593Z,38.41
2023-04-02T02:36:11.029Z,38.78
2023-04-02T02:38:37.385Z,38.57
2023-04-02T02:41:03.744Z,38.77
2023-04-02T02:43:30.178Z,38.76
2023-04-02T02:45:56.595Z,38.58
2023-04-02T02:48:23.005Z,38.72
2023-04-02T02:50:49.337Z,38.59
2023-04-02T02:53:15.705Z,38.56
2023-04-02T02:55:42.074Z,38.89
2023-04-02T02:58:08.426Z,38.70
2023-04-02T03:00:34.745Z,38.49
2023-04-02T03:03:01.244Z,38.79
2023-04-02T03:05:27.716Z,38.92
2023-04-02T03:07:54.076Z,39.26
2023-04-02T03:10:20.396Z,38.75
2023-04-02T03:12:46.769Z,38.90
2023-04-02T03:15:13.089Z,38.86
2023-04-02T03:17:39.409Z,38.82
2023-04-02T03:20:05.945Z,38.94
2023-04-02T03:22:32.286Z,38.81
2023-04-02T03:24:58.669Z,38.76
2023-04-02T03:27:24.992Z,39.10
2023-04-02T03:29:51.368Z,39.20
2023-04-02T03:32:17.680Z,38.98
2023-04-02T03:34:44.025Z,38.92
2023-04-02T03:37:10.380Z,38.95
2023-04-02T03:39:36.912Z,38.89
2023-04-02T03:42:03.396Z,39.02
2023-04-02T03:44:29.770Z,39.30
2023-04-02T03:46:56.089Z,38.78
2023-04-02T03:49:22.410Z,38.90
2023-04-02T03:51:48.716Z,39.13
2023-04-02T03:54:15.058Z,39.03
2023-04-02T03:56:41.392Z,38.82
2023-04-02T03:59:07.730Z,39.14
2023-04-02T04:01:34.127Z,38.96
2023-04-02T04:04:00.569Z,39.14
2023-04-02T04:06:26.933Z,38.86
2023-04-02T04:08:53.382Z,38.74
2023-04-02T04:11:19.755Z,39.44
2023-04-02T04:13:46.145Z,38.93
2023-04-02T04:16:12.571Z,39.29
2023-04-02T04:18:38.999Z,39.21
2023-04-02T04:21:05.315Z,39.16
2023-04-02T04:23:31.643Z,39.06
2023-04-02T04:25:58.028Z,39.17
2023-04-02T04:28:24.486Z,39.24
2023-04-02T04:30:51.008Z,39.16
2023-04-02T04:33:17.547Z,38.86
2023-04-02T04:35:44.054Z,38.68
2023-04-02T04:38:10.647Z,38.63
2023-04-02T04:40:36.996Z,38.85
2023-04-02T04:43:03.365Z,39.11
2023-04-02T04:45:29.708Z,38.77
2023-04-02T04:47:56.064Z,38.86
2023-04-02T04:50:22.419Z,38.72
2023-04-02T04:52:48.959Z,38.66
2023-04-02T04:55:15.924Z,38.94
2023-04-02T04:57:42.339Z,38.63
2023-04-02T05:00:08.645Z,38.55
2023-04-02T05:02:35.042Z,39.03
2023-04-02T05:05:01.493Z,38.94
2023-04-02T05:07:27.907Z,38.72
2023-04-02T05:09:54.228Z,38.70
2023-04-02T05:12:20.630Z,39.01
2023-04-02T05:14:47.017Z,38.55
2023-04-02T05:17:13.333Z,39.02
2023-04-02T05:19:39.639Z,38.84
2023-04-02T05:22:05.947Z,38.43
2023-04-02T05:24:32.268Z,38.99
2023-04-02T05:26:58.591Z,38.94
2023-04-02T05:29:24.907Z,38.91
2023-04-02T05:31:51.222Z,38.63
2023-04-02T05:34:17.612Z,38.63
2023-04-02T05:36:44.211Z,38.49
2023-04-02T05:39:10.782Z,38.56
2023-04-02T05:41:37.104Z,38.69
2023-04-02T05:44:03.493Z,38.56
2023-04-02T05:46:29.916Z,40.22
2023-04-02T05:48:56.323Z,42.24
2023-04-02T05:51:22.691Z,41.68
2023-04-02T05:53:49.056Z,42.39
2023-04-02T05:56:15.414Z,42.13
2023-04-02T05:58:43.917Z,42.21
2023-04-02T06:01:11.825Z,42.00
2023-04-02T06:03:38.209Z,41.37
2023-04-02T06:06:04.809Z,41.69
2023-04-02T06:08:31.204Z,40.91
2023-04-02T06:10:57.562Z,40.33
2023-04-02T06:13:23.905Z,40.42
2023-04-02T06:15:50.296Z,41.65
2023-04-02T06:18:16.623Z,40.99
2023-04-02T06:20:42.971Z,40.72
2023-04-02T06:23:09.286Z,40.91
2023-04-02T06:25:35.771Z,40.48
2023-04-02T06:28:02.220Z,40.18
2023-04-02T06:30:28.719Z,40.29
2023-04-02T06:32:56.437Z,41.11
2023-04-02T06:35:22.865Z,42.68
2023-04-02T06:37:49.418Z,44.67
2023-04-02T06:40:15.759Z,42.37
2023-04-02T06:42:42.121Z,42.28
2023-04-02T06:45:08.485Z,44.81
2023-04-02T06:47:34.855Z,43.17
2023-04-02T06:50:01.413Z,45.41
2023-04-02T06:52:27.735Z,46.74
2023-04-02T06:54:54.126Z,46.78
2023-04-02T06:57:20.608Z,46.12
2023-04-02T06:59:46.996Z,45.69
2023-04-02T07:02:13.440Z,46.06
2023-04-02T07:04:39.830Z,45.66
2023-04-02T07:07:06.187Z,46.50
2023-04-02T07:09:32.557Z,47.88
2023-04-02T07:11:58.941Z,45.91
2023-04-02T07:14:25.329Z,45.42
2023-04-02T07:16:51.670Z,45.61
2023-04-02T07:19:17.993Z,44.68
2023-04-02T07:21:44.307Z,44.00
2023-04-02T07:24:10.819Z,42.98
2023-04-02T07:26:37.147Z,42.70
2023-04-02T07:29:03.535Z,42.32
2023-04-02T07:31:29.933Z,42.21
2023-04-02T07:33:56.318Z,41.89
2023-04-02T07:36:22.782Z,41.44
2023-04-02T07:38:49.190Z,41.54
2023-04-02T07:41:15.499Z,41.72
2023-04-02T07:43:41.918Z,41.53
2023-04-02T07:46:08.343Z,41.15
2023-04-02T07:48:34.701Z,41.30
2023-04-02T07:51:01.032Z,40.60
2023-04-02T07:53:27.416Z,40.87
2023-04-02T07:55:53.816Z,40.86
2023-04-02T07:58:20.156Z,40.38
2023-04-02T08:00:46.472Z,40.54
2023-04-02T08:03:12.943Z,40.48
2023-04-02T08:05:39.382Z,40.59
2023-04-02T08:08:05.699Z,40.24
2023-04-02T08:10:32.025Z,40.22
2023-04-02T08:12:58.414Z,40.55
2023-04-02T08:15:24.764Z,39.84
2023-04-02T08:17:51.164Z,39.95
2023-04-02T08:20:17.585Z,40.29
2023-04-02T08:22:43.993Z,40.06
2023-04-02T08:25:10.489Z,40.18
2023-04-02T08:27:36.819Z,39.98
2023-04-02T08:30:03.224Z,39.64
2023-04-02T08:32:29.629Z,39.76
2023-04-02T08:34:55.985Z,39.54
2023-04-02T08:37:22.461Z,39.68
2023-04-02T08:39:48.794Z,39.65
2023-04-02T08:42:15.118Z,39.74
2023-04-02T08:44:41.442Z,39.90
2023-04-02T08:47:07.755Z,39.88
2023-04-02T08:49:34.102Z,39.38
2023-04-02T08:52:00.422Z,39.21
2023-04-02T08:54:27.816Z,39.38
2023-04-02T08:56:54.430Z,39.33
2023-04-02T08:59:20.912Z,39.54
2023-04-02T09:01:47.257Z,39.35
2023-04-02T09:04:13.694Z,39.43
2023-04-02T09:06:40.055Z,39.52
2023-04-02T09:09:06.439Z,38.97
2023-04-02T09:11:32.784Z,39.21
2023-04-02T09:13:59.103Z,39.46
2023-04-02T09:16:25.516Z,39.15
2023-04-02T09:18:51.936Z,38.92
2023-04-02T09:21:18.306Z,38.99
2023-04-02T09:23:44.701Z,38.88
2023-04-02T09:26:11.050Z,38.77
2023-04-02T09:28:37.375Z,38.96
2023-04-02T09:31:05.506Z,38.87
2023-04-02T09:33:33.142Z,39.03
2023-04-02T09:35:59.503Z,38.58
2023-04-02T09:38:25.821Z,38.67
2023-04-02T09:40:52.362Z,38.95
2023-04-02T09:43:19.082Z,38.82
2023-04-02T09:45:45.409Z,38.47
2023-04-02T09:48:11.824Z,38.69
2023-04-02T09:50:38.296Z,38.64
2023-04-02T09:53:04.833Z,38.33
2023-04-02T09:55:31.228Z,38.72
2023-04-02T09:57:58.012Z,38.36
2023-04-02T10:00:32.154Z,38.45
2023-04-02T10:02:58.983Z,38.90
2023-04-02T10:05:39.306Z,38.61
2023-04-02T10:08:06.742Z,38.72
2023-04-02T10:10:33.494Z,38.53
2023-04-02T10:12:59.996Z,38.43
2023-04-02T10:15:26.386Z,38.16
2023-04-02T10:17:52.888Z,38.29
2023-04-02T10:20:19.391Z,38.10
2023-04-02T10:22:45.746Z,38.42
2023-04-02T10:25:12.126Z,38.16
2023-04-02T10:27:38.499Z,38.25
2023-04-02T10:30:04.859Z,38.32
2023-04-02T10:32:31.282Z,38.44
2023-04-02T10:34:57.710Z,38.13
2023-04-02T10:37:24.239Z,38.30
2023-04-02T10:39:50.555Z,38.08
2023-04-02T10:42:16.917Z,38.43
2023-04-02T10:44:43.316Z,37.86
2023-04-02T10:47:09.703Z,38.33
2023-04-02T10:49:36.148Z,38.49
2023-04-02T10:52:02.745Z,38.11
2023-04-02T10:54:29.055Z,38.15
2023-04-02T10:56:55.375Z,38.28
2023-04-02T10:59:21.846Z,38.16
2023-04-02T11:01:48.204Z,37.97
2023-04-02T11:04:14.622Z,37.84
2023-04-02T11:06:41.002Z,38.06
2023-04-02T11:09:07.410Z,38.19
2023-04-02T11:11:33.789Z,37.94
2023-04-02T11:14:00.211Z,37.73
2023-04-02T11:16:26.624Z,37.66
2023-04-02T11:18:52.969Z,38.04
2023-04-02T11:21:19.285Z,37.87
2023-04-02T11:23:45.613Z,37.84
2023-04-02T11:26:11.990Z,37.90
2023-04-02T11:28:38.381Z,37.69
2023-04-02T11:31:04.790Z,38.06
2023-04-02T11:33:38.139Z,37.78
2023-04-02T11:36:06.460Z,37.49
2023-04-02T11:38:32.922Z,37.53
2023-04-02T11:40:59.285Z,37.48
2023-04-02T11:43:25.704Z,37.60
2023-04-02T11:45:53.473Z,37.83
2023-04-02T11:48:20.040Z,37.96
2023-04-02T11:50:46.817Z,37.74
2023-04-02T11:53:13.358Z,37.75
2023-04-02T11:55:39.959Z,38.04
2023-04-02T11:58:06.495Z,37.78
2023-04-02T12:00:32.855Z,37.81
2023-04-02T12:02:59.246Z,38.07
2023-04-02T12:05:25.715Z,37.88
2023-04-02T12:07:52.317Z,37.22
2023-04-02T12:10:19.113Z,37.52
2023-04-02T12:12:45.461Z,37.79
2023-04-02T12:15:11.919Z,37.43
2023-04-02T12:17:38.431Z,37.59
2023-04-02T12:20:05.949Z,37.67
2023-04-02T12:22:32.435Z,37.67
2023-04-02T12:24:58.761Z,37.22
2023-04-02T12:27:25.160Z,37.79
2023-04-02T12:29:51.497Z,37.45
2023-04-02T12:32:17.857Z,37.50
2023-04-02T12:34:44.485Z,37.30
2023-04-02T12:37:10.867Z,37.36
2023-04-02T12:39:37.212Z,37.44
2023-04-02T12:42:03.551Z,37.21
2023-04-02T12:44:30.019Z,37.43
2023-04-02T12:46:56.375Z,37.40
2023-04-02T12:49:22.750Z,37.35
2023-04-02T12:51:49.331Z,37.08
2023-04-02T12:54:15.735Z,37.34
2023-04-02T12:56:42.075Z,37.84
2023-04-02T12:59:08.452Z,37.23
2023-04-02T13:01:34.894Z,37.46
2023-04-02T13:04:01.345Z,37.19
2023-04-02T13:06:27.751Z,37.39
2023-04-02T13:08:54.322Z,37.50
2023-04-02T13:11:20.691Z,37.67
2023-04-02T13:13:47.123Z,37.39
2023-04-02T13:16:13.609Z,37.23
2023-04-02T13:18:40.064Z,37.45
2023-04-02T13:21:06.470Z,37.29
2023-04-02T13:23:32.847Z,37.31
2023-04-02T13:25:59.199Z,37.45
2023-04-02T13:28:25.661Z,37.48
2023-04-02T13:30:51.977Z,37.40
2023-04-02T13:33:18.384Z,37.44
2023-04-02T13:35:44.785Z,37.33
2023-04-02T13:38:11.145Z,37.50
2023-04-02T13:40:37.879Z,37.37
2023-04-02T13:43:04.546Z,37.03
2023-04-02T13:45:30.913Z,37.28
2023-04-02T13:47:57.325Z,37.09
2023-04-02T13:50:23.865Z,37.50
2023-04-02T13:52:50.247Z,37.04
2023-04-02T13:55:16.633Z,37.40
2023-04-02T13:57:43.001Z,37.15
2023-04-02T14:00:09.372Z,37.50
2023-04-02T14:02:35.849Z,37.18
2023-04-02T14:05:02.273Z,37.41
2023-04-02T14:07:28.597Z,37.04
2023-04-02T14:09:55.032Z,37.36
2023-04-02T14:12:21.678Z,37.37
2023-04-02T14:14:48.073Z,37.38
2023-04-02T14:17:14.445Z,37.31
2023-04-02T14:19:40.911Z,37.42
2023-04-02T14:22:07.291Z,37.20
2023-04-02T14:24:33.710Z,37.38
2023-04-02T14:27:00.107Z,36.97
2023-04-02T14:29:28.212Z,36.96
2023-04-02T14:31:55.682Z,36.94
2023-04-02T14:34:22.169Z,37.37
2023-04-02T14:36:48.543Z,36.79
2023-04-02T14:39:14.941Z,36.81
2023-04-02T14:41:41.265Z,36.86
2023-04-02T14:44:07.645Z,36.75
2023-04-02T14:46:36.826Z,37.13
2023-04-02T14:49:03.742Z,36.93
2023-04-02T14:51:30.127Z,36.98
2023-04-02T14:53:56.522Z,36.89
2023-04-02T14:56:23.056Z,37.23
2023-04-02T14:58:49.385Z,37.14
2023-04-02T15:01:15.733Z,37.13
2023-04-02T15:03:42.119Z,37.23
2023-04-02T15:06:08.455Z,37.12
2023-04-02T15:08:35.006Z,36.75
2023-04-02T15:11:04.266Z,37.04
2023-04-02T15:13:32.297Z,37.10
2023-04-02T15:15:58.670Z,37.09
2023-04-02T15:18:25.064Z,36.68
2023-04-02T15:20:51.433Z,36.65
2023-04-02T15:23:17.774Z,36.83
2023-04-02T15:25:44.143Z,37.02
2023-04-02T15:28:10.566Z,37.00
2023-04-02T15:30:37.252Z,36.75
2023-04-02T15:33:03.927Z,36.81
2023-04-02T15:35:30.394Z,36.64
2023-04-02T15:37:56.868Z,36.92
2023-04-02T15:40:23.236Z,36.89
2023-04-02T15:42:49.697Z,36.95
2023-04-02T15:45:16.296Z,36.91
2023-04-02T15:47:42.720Z,37.18
2023-04-02T15:50:09.368Z,37.14
2023-04-02T15:52:35.745Z,37.03
2023-04-02T15:55:02.103Z,37.10
2023-04-02T15:57:28.466Z,36.84
2023-04-02T15:59:54.812Z,37.09
2023-04-02T16:02:21.331Z,37.04
2023-04-02T16:04:47.663Z,37.12
2023-04-02T16:07:14.040Z,36.90
2023-04-02T16:09:40.427Z,36.78
2023-04-02T16:12:06.826Z,36.94
2023-04-02T16:14:33.200Z,36.66
2023-04-02T16:17:02.106Z,37.04
2023-04-02T16:19:30.284Z,37.10
2023-04-02T16:21:56.648Z,36.67
2023-04-02T16:24:23.007Z,37.09
2023-04-02T16:26:50.399Z,36.81
2023-04-02T16:29:18.382Z,36.96
2023-04-02T16:31:44.755Z,36.97
2023-04-02T16:34:11.157Z,36.93
2023-04-02T16:36:37.557Z,36.86
2023-04-02T16:39:04.162Z,37.05
2023-04-02T16:41:30.512Z,36.94
2023-04-02T16:43:57.056Z,37.04
2023-04-02T16:46:38.333Z,36.68
2023-04-02T16:49:05.878Z,36.82
2023-04-02T16:51:32.716Z,36.73
2023-04-02T16:54:02.321Z,37.04
2023-04-02T16:56:29.011Z,36.87
2023-04-02T16:58:55.349Z,36.70
2023-04-02T17:01:21.730Z,36.88
2023-04-02T17:03:48.293Z,36.64
2023-04-02T17:06:14.988Z,36.80
2023-04-02T17:08:41.370Z,36.97
2023-04-02T17:11:07.762Z,36.75
2023-04-02T17:13:34.165Z,37.03
2023-04-02T17:16:00.526Z,36.56
2023-04-02T17:18:26.902Z,36.40
2023-04-02T17:20:53.244Z,36.36
2023-04-02T17:23:19.562Z,36.76
2023-04-02T17:25:45.962Z,36.34
2023-04-02T17:28:12.287Z,36.92
2023-04-02T17:30:39.026Z,36.33
2023-04-02T17:33:05.473Z,36.81
2023-04-02T17:35:31.860Z,36.54
2023-04-02T17:37:58.320Z,36.55
2023-04-02T17:40:24.657Z,36.44
2023-04-02T17:42:51.025Z,36.60
2023-04-02T17:45:17.405Z,36.60
2023-04-02T17:47:43.791Z,36.82
2023-04-02T17:50:10.178Z,36.59
2023-04-02T17:52:36.577Z,36.96
2023-04-02T17:55:02.906Z,36.57
2023-04-02T17:57:31.424Z,36.43
2023-04-02T17:59:57.948Z,36.64
2023-04-02T18:02:24.440Z,36.64
2023-04-02T18:04:50.803Z,37.04
2023-04-02T18:07:17.116Z,36.93
2023-04-02T18:09:43.489Z,36.67
2023-04-02T18:12:09.848Z,36.86
2023-04-02T18:14:36.180Z,37.07
2023-04-02T18:17:02.552Z,36.53
2023-04-02T18:19:30.562Z,36.36
2023-04-02T18:21:58.098Z,36.75
2023-04-02T18:24:24.856Z,36.33
2023-04-02T18:26:51.292Z,36.44
2023-04-02T18:29:17.664Z,36.38
2023-04-02T18:31:44.039Z,36.77
2023-04-02T18:34:10.656Z,36.73
2023-04-02T18:36:37.026Z,36.97
2023-04-02T18:39:03.425Z,36.85
2023-04-02T18:41:29.742Z,36.72
2023-04-02T18:43:57.516Z,36.64
2023-04-02T18:46:24.082Z,36.44
2023-04-02T18:48:50.476Z,36.57
2023-04-02T18:51:16.992Z,36.64
2023-04-02T18:53:43.372Z,36.72
2023-04-02T18:56:11.893Z,36.47
2023-04-02T18:58:38.414Z,36.49
2023-04-02T19:01:04.820Z,36.62
2023-04-02T19:03:31.251Z,36.50
2023-04-02T19:05:57.869Z,36.89
2023-04-02T19:08:24.315Z,36.46
2023-04-02T19:10:50.696Z,36.50
2023-04-02T19:13:17.084Z,36.82
2023-04-02T19:15:43.444Z,36.53
2023-04-02T19:18:09.847Z,36.47
2023-04-02T19:20:36.353Z,36.36
2023-04-02T19:23:02.930Z,36.65
2023-04-02T19:25:29.332Z,36.72
2023-04-02T19:27:55.841Z,36.90
2023-04-02T19:30:22.155Z,36.40
2023-04-02T19:32:48.545Z,36.72
2023-04-02T19:35:14.936Z,36.65
2023-04-02T19:37:41.275Z,36.60
2023-04-02T19:40:07.678Z,36.67
2023-04-02T19:42:34.085Z,36.12
2023-04-02T19:45:00.491Z,36.29
2023-04-02T19:47:27.113Z,36.28
2023-04-02T19:49:53.526Z,36.21
2023-04-02T19:52:19.907Z,36.61
2023-04-02T19:54:46.256Z,36.40
2023-04-02T19:57:12.618Z,36.23
2023-04-02T19:59:39.006Z,36.05
2023-04-02T20:02:05.375Z,36.54
2023-04-02T20:04:31.963Z,36.11
2023-04-02T20:06:58.335Z,36.24
2023-04-02T20:09:24.697Z,36.11
2023-04-02T20:11:51.121Z,35.98
2023-04-02T20:14:17.524Z,36.44
2023-04-02T20:16:45.382Z,36.26
2023-04-02T20:19:12.238Z,36.34
2023-04-02T20:21:38.697Z,36.28
2023-04-02T20:24:05.275Z,36.01
2023-04-02T20:26:31.646Z,35.90
2023-04-02T20:28:57.978Z,36.22
2023-04-02T20:31:24.401Z,36.18
2023-04-02T20:33:50.930Z,36.20
2023-04-02T20:36:17.320Z,35.95
2023-04-02T20:38:43.663Z,36.03
2023-04-02T20:41:10.097Z,36.15
2023-04-02T20:43:36.514Z,35.88
2023-04-02T20:46:02.957Z,35.84
2023-04-02T20:48:29.324Z,35.94
2023-04-02T20:50:55.768Z,35.69
2023-04-02T20:53:22.154Z,35.90
2023-04-02T20:55:48.487Z,35.68
2023-04-02T20:58:14.811Z,35.74
2023-04-02T21:00:41.191Z,36.19
2023-04-02T21:03:07.787Z,35.65
2023-04-02T21:05:34.242Z,35.85
2023-04-02T21:08:00.682Z,36.12
2023-04-02T21:10:27.029Z,35.95
2023-04-02T21:12:53.370Z,35.56
2023-04-02T21:15:19.827Z,35.81
2023-04-02T21:17:46.223Z,35.82
2023-04-02T21:20:12.745Z,35.65
2023-04-02T21:22:39.178Z,35.98
2023-04-02T21:25:05.522Z,35.88
2023-04-02T21:27:31.824Z,35.96
2023-04-02T21:29:58.163Z,35.70
2023-04-02T21:32:24.588Z,35.85
2023-04-02T21:34:50.941Z,35.80
2023-04-02T21:37:17.282Z,36.23
2023-04-02T21:39:43.641Z,35.72
2023-04-02T21:42:10.091Z,35.89
2023-04-02T21:44:36.453Z,36.19
2023-04-02T21:47:02.808Z,35.65
2023-04-02T21:49:29.249Z,35.80
2023-04-02T21:51:55.838Z,35.99
2023-04-02T21:54:22.174Z,35.82
2023-04-02T21:56:48.599Z,35.56
2023-04-02T21:59:14.964Z,35.83
2023-04-02T22:01:41.369Z,35.64
2023-04-02T22:04:07.991Z,35.77
2023-04-02T22:06:34.393Z,35.62
2023-04-02T22:09:00.781Z,35.86
2023-04-02T22:11:27.123Z,35.76
2023-04-02T22:13:53.584Z,36.02
2023-04-02T22:16:19.948Z,35.91
2023-04-02T22:18:46.336Z,35.93
2023-04-02T22:21:12.710Z,35.95
2023-04-02T22:23:39.099Z,35.92
2023-04-02T22:26:05.541Z,36.11
2023-04-02T22:28:31.915Z,36.03
2023-04-02T22:30:58.276Z,35.69
2023-04-02T22:33:24.631Z,35.65
2023-04-02T22:35:51.058Z,35.58
2023-04-02T22:38:17.398Z,35.94
2023-04-02T22:40:43.771Z,35.61
2023-04-02T22:43:10.096Z,35.75
2023-04-02T22:45:36.466Z,35.96
2023-04-02T22:48:02.926Z,35.66
2023-04-02T22:50:29.247Z,35.91
2023-04-02T22:52:55.609Z,35.76
2023-04-02T22:55:21.988Z,35.87
2023-04-02T22:57:48.385Z,35.47
2023-04-02T23:00:14.768Z,35.39
2023-04-02T23:02:41.132Z,35.63
2023-04-02T23:05:07.488Z,35.49
2023-04-02T23:07:33.889Z,35.76
2023-04-02T23:10:00.271Z,35.79
2023-04-02T23:12:26.588Z,35.71
2023-04-02T23:14:52.981Z,35.82
2023-04-02T23:17:19.399Z,35.75
2023-04-02T23:19:45.771Z,35.70
2023-04-02T23:22:12.311Z,35.74
2023-04-02T23:24:38.728Z,35.79
2023-04-02T23:27:05.049Z,35.44
2023-04-02T23:29:31.426Z,35.75
2023-04-02T23:31:58.117Z,35.65
2023-04-02T23:34:24.460Z,35.78
2023-04-02T23:36:50.770Z,35.41
2023-04-02T23:39:17.117Z,35.30
2023-04-02T23:41:43.457Z,35.65
2023-04-02T23:44:09.767Z,35.45
2023-04-02T23:46:36.155Z,35.55
2023-04-02T23:49:02.580Z,35.57
2023-04-02T23:51:28.902Z,35.74
2023-04-02T23:53:55.265Z,35.62
2023-04-02T23:56:21.620Z,35.67
2023-04-02T23:58:47.976Z,35.57
